createdAt,value
2016-11-18T00:00:52.915Z,992.62
2016-11-18T00:01:34.642Z,992.6
2016-11-18T00:02:16.204Z,992.65
2016-11-18T00:04:10.961Z,992.62
2016-11-18T00:04:52.630Z,992.58
2016-11-18T00:06:52.621Z,992.49
2016-11-18T00:07:34.424Z,992.47
2016-11-18T00:08:16.287Z,992.44
2016-11-18T00:08:57.932Z,992.48
2016-11-18T00:09:39.764Z,992.53
2016-11-18T00:11:55.147Z,992.46
2016-11-18T00:12:36.722Z,992.46
2016-11-18T00:16:20.755Z,992.52
2016-11-18T00:17:02.506Z,992.48
2016-11-18T00:17:44.129Z,992.54
2016-11-18T00:19:59.438Z,992.4
2016-11-18T00:20:41.085Z,992.35
2016-11-18T00:21:22.862Z,992.36
2016-11-18T00:22:04.654Z,992.35
2016-11-18T00:22:46.386Z,992.46
2016-11-18T00:23:28.146Z,992.45
2016-11-18T00:24:09.835Z,992.34
2016-11-18T00:24:51.476Z,992.4
2016-11-18T00:25:33.086Z,992.35
2016-11-18T00:26:14.806Z,992.3
2016-11-18T00:28:14.893Z,992.31
2016-11-18T00:28:56.560Z,992.36
2016-11-18T00:29:38.160Z,992.39
2016-11-18T00:30:19.903Z,992.41
2016-11-18T00:32:35.297Z,992.38
2016-11-18T00:34:50.622Z,992.32
2016-11-18T00:35:32.194Z,992.39
2016-11-18T00:36:13.773Z,992.29
2016-11-18T00:36:55.489Z,992.16
2016-11-18T00:38:55.544Z,992.28
2016-11-18T00:39:37.133Z,992.25
2016-11-18T00:40:18.813Z,992.15
2016-11-18T00:41:00.424Z,992.25
2016-11-18T00:41:42.199Z,992.1
2016-11-18T00:42:23.776Z,992.07
2016-11-18T00:43:05.472Z,992.09
2016-11-18T00:43:46.814Z,992.11
2016-11-18T00:44:28.433Z,992.09
2016-11-18T00:45:10.152Z,992.08
2016-11-18T00:45:51.843Z,992.13
2016-11-18T00:46:33.522Z,992.09
2016-11-18T00:50:23.049Z,992.04
2016-11-18T00:51:04.740Z,992.13
2016-11-18T00:51:46.293Z,991.96
2016-11-18T00:53:41.056Z,991.95
2016-11-18T00:54:22.672Z,992.03
2016-11-18T00:55:04.304Z,991.96
2016-11-18T00:55:46.047Z,991.98
2016-11-18T00:56:27.796Z,992.04
2016-11-18T00:57:09.543Z,991.95
2016-11-18T00:57:51.253Z,991.97
2016-11-18T00:58:32.992Z,991.96
2016-11-18T00:59:14.694Z,991.87
2016-11-18T00:59:56.402Z,991.93
2016-11-18T01:00:38.092Z,991.96
2016-11-18T01:01:19.811Z,991.84
2016-11-18T01:03:19.757Z,991.8
2016-11-18T01:04:01.514Z,991.8
2016-11-18T01:04:43.207Z,991.75
2016-11-18T01:05:24.795Z,991.76
2016-11-18T01:06:06.521Z,991.81
2016-11-18T01:06:48.340Z,991.67
2016-11-18T01:07:30.028Z,991.79
2016-11-18T01:08:11.738Z,991.75
2016-11-18T01:08:53.476Z,991.75
2016-11-18T01:09:35.259Z,991.8
2016-11-18T01:10:16.985Z,991.74
2016-11-18T01:10:58.617Z,991.74
2016-11-18T01:11:40.232Z,991.84
2016-11-18T01:12:21.881Z,991.71
2016-11-18T01:13:03.635Z,991.66
2016-11-18T01:13:45.398Z,991.61
2016-11-18T01:14:26.945Z,991.67
2016-11-18T01:16:58.207Z,991.68
2016-11-18T01:17:39.656Z,991.55
2016-11-18T01:18:21.414Z,991.55
2016-11-18T01:22:10.976Z,991.52
2016-11-18T01:22:52.735Z,991.59
2016-11-18T01:23:34.413Z,991.55
2016-11-18T01:24:16.180Z,991.45
2016-11-18T01:26:31.684Z,991.56
2016-11-18T01:27:13.398Z,991.51
2016-11-18T01:29:28.750Z,991.55
2016-11-18T01:30:10.462Z,991.45
2016-11-18T01:30:52.131Z,991.59
2016-11-18T01:31:33.915Z,991.56
2016-11-18T01:32:15.625Z,991.5
2016-11-18T01:32:57.299Z,991.49
2016-11-18T01:33:38.817Z,991.44
2016-11-18T01:34:20.459Z,991.52
2016-11-18T01:36:35.737Z,991.41
2016-11-18T01:38:35.733Z,991.4
2016-11-18T01:39:17.490Z,991.39
2016-11-18T01:39:59.258Z,991.36
2016-11-18T01:40:40.825Z,991.48
2016-11-18T01:42:56.262Z,991.29
2016-11-18T01:43:37.970Z,991.31
2016-11-18T01:44:19.680Z,991.22
2016-11-18T01:45:01.452Z,991.28
2016-11-18T01:45:43.104Z,991.18
2016-11-18T01:46:24.777Z,991.16
2016-11-18T01:47:06.543Z,991.16
2016-11-18T01:47:48.039Z,991.1
2016-11-18T01:48:29.483Z,991.15
2016-11-18T01:49:10.521Z,991.14
2016-11-18T01:49:52.227Z,991.02
2016-11-18T01:50:33.233Z,990.97
2016-11-18T01:51:14.912Z,990.99
2016-11-18T01:51:56.696Z,991.07
2016-11-18T01:52:37.935Z,990.94
2016-11-18T01:56:22.038Z,990.93
2016-11-18T01:57:03.791Z,990.85
2016-11-18T01:57:45.494Z,990.73
2016-11-18T01:59:40.278Z,990.71
2016-11-18T02:00:21.892Z,990.68
2016-11-18T02:02:21.185Z,990.72
2016-11-18T02:03:01.721Z,990.67
2016-11-18T02:03:42.260Z,990.72
2016-11-18T02:04:22.794Z,990.75
2016-11-18T02:05:03.336Z,990.71
2016-11-18T02:05:43.882Z,990.69
2016-11-18T02:06:24.417Z,990.7
2016-11-18T02:07:04.936Z,990.72
2016-11-18T02:07:45.463Z,990.64
2016-11-18T02:08:26.009Z,990.68
2016-11-18T02:09:06.548Z,990.57
2016-11-18T02:09:47.092Z,990.54
2016-11-18T02:10:27.629Z,990.57
2016-11-18T02:11:08.211Z,990.55
2016-11-18T02:11:48.755Z,990.54
2016-11-18T02:12:29.294Z,990.52
2016-11-18T02:13:09.831Z,990.68
2016-11-18T02:13:50.372Z,990.6
2016-11-18T02:14:30.893Z,990.56
2016-11-18T02:15:11.417Z,990.47
2016-11-18T02:15:51.965Z,990.42
2016-11-18T02:16:32.501Z,990.49
2016-11-18T02:17:13.038Z,990.4
2016-11-18T02:17:53.587Z,990.32
2016-11-18T02:18:34.127Z,990.32
2016-11-18T02:19:14.668Z,990.36
2016-11-18T02:19:55.215Z,990.25
2016-11-18T02:20:35.758Z,990.17
2016-11-18T02:21:16.296Z,990.36
2016-11-18T02:21:56.829Z,990.37
2016-11-18T02:22:37.361Z,990.39
2016-11-18T02:23:17.905Z,990.39
2016-11-18T02:23:58.453Z,990.37
2016-11-18T02:24:38.997Z,990.33
2016-11-18T02:25:19.532Z,990.34
2016-11-18T02:26:00.081Z,990.28
2016-11-18T02:26:40.613Z,990.26
2016-11-18T02:27:21.135Z,990.3
2016-11-18T02:28:01.676Z,990.26
2016-11-18T02:28:42.213Z,990.21
2016-11-18T02:29:22.759Z,990.3
2016-11-18T02:30:03.300Z,990.21
2016-11-18T02:30:43.838Z,990.21
2016-11-18T02:31:24.386Z,990.13
2016-11-18T02:32:04.921Z,990.18
2016-11-18T02:32:45.453Z,990.16
2016-11-18T02:33:25.997Z,990.19
2016-11-18T02:34:06.524Z,990.12
2016-11-18T02:34:47.065Z,990.16
2016-11-18T02:35:27.619Z,990.11
2016-11-18T02:36:08.162Z,990.14
2016-11-18T02:36:48.701Z,990.12
2016-11-18T02:37:29.242Z,990.2
2016-11-18T02:38:09.773Z,990.2
2016-11-18T02:38:50.293Z,990.08
2016-11-18T02:39:30.836Z,990.12
2016-11-18T02:40:11.375Z,990.05
2016-11-18T02:40:51.928Z,989.97
2016-11-18T02:41:32.476Z,990.02
2016-11-18T02:42:13.030Z,989.96
2016-11-18T02:42:53.573Z,989.93
2016-11-18T02:43:34.111Z,989.96
2016-11-18T02:44:14.663Z,989.92
2016-11-18T02:44:55.201Z,989.76
2016-11-18T02:45:35.720Z,989.8
2016-11-18T02:46:16.254Z,989.73
2016-11-18T02:46:56.792Z,989.77
2016-11-18T02:47:37.390Z,989.75
2016-11-18T02:48:17.917Z,989.84
2016-11-18T02:48:58.455Z,989.74
2016-11-18T02:49:38.989Z,989.8
2016-11-18T02:50:19.528Z,989.73
2016-11-18T02:51:00.065Z,989.68
2016-11-18T02:51:40.606Z,989.7
2016-11-18T02:52:21.149Z,989.58
2016-11-18T02:53:01.680Z,989.52
2016-11-18T02:53:42.216Z,989.6
2016-11-18T02:54:22.750Z,989.67
2016-11-18T02:55:03.292Z,989.65
2016-11-18T02:55:43.831Z,989.69
2016-11-18T02:56:24.371Z,989.74
2016-11-18T02:57:04.913Z,989.59
2016-11-18T02:57:45.429Z,989.69
2016-11-18T02:58:25.961Z,989.59
2016-11-18T02:59:06.502Z,989.6
2016-11-18T02:59:47.033Z,989.62
2016-11-18T03:00:27.572Z,989.5
2016-11-18T03:01:08.110Z,989.65
2016-11-18T03:01:48.651Z,989.62
2016-11-18T03:02:29.185Z,989.51
2016-11-18T03:03:09.727Z,989.6
2016-11-18T03:03:50.256Z,989.54
2016-11-18T03:04:30.799Z,989.57
2016-11-18T03:05:11.341Z,989.59
2016-11-18T03:05:51.878Z,989.45
2016-11-18T03:06:32.420Z,989.48
2016-11-18T03:07:12.965Z,989.47
2016-11-18T03:07:53.511Z,989.58
2016-11-18T03:08:34.049Z,989.43
2016-11-18T03:09:14.572Z,989.47
2016-11-18T03:09:55.116Z,989.39
2016-11-18T03:10:35.652Z,989.41
2016-11-18T03:11:16.196Z,989.33
2016-11-18T03:11:56.747Z,989.41
2016-11-18T03:12:37.283Z,989.38
2016-11-18T03:13:17.823Z,989.44
2016-11-18T03:13:58.373Z,989.4
2016-11-18T03:14:38.912Z,989.27
2016-11-18T03:15:19.451Z,989.56
2016-11-18T03:15:59.990Z,989.18
2016-11-18T03:16:40.532Z,989.32
2016-11-18T03:17:21.070Z,989.29
2016-11-18T03:18:01.590Z,989.39
2016-11-18T03:18:42.131Z,989.31
2016-11-18T03:19:22.688Z,989.43
2016-11-18T03:20:03.224Z,989.38
2016-11-18T03:20:43.742Z,989.37
2016-11-18T03:21:24.319Z,989.42
2016-11-18T03:22:04.872Z,989.3
2016-11-18T03:22:45.406Z,989.32
2016-11-18T03:23:25.933Z,989.28
2016-11-18T03:24:06.467Z,989.22
2016-11-18T03:24:47.006Z,989.27
2016-11-18T03:25:27.543Z,989.29
2016-11-18T03:26:08.085Z,989.22
2016-11-18T03:26:48.632Z,989.3
2016-11-18T03:27:29.171Z,989.24
2016-11-18T03:28:09.700Z,989.45
2016-11-18T03:28:50.244Z,989.27
2016-11-18T03:29:30.779Z,989.18
2016-11-18T03:30:11.323Z,989.18
2016-11-18T03:30:51.864Z,989.16
2016-11-18T03:31:32.404Z,989.26
2016-11-18T03:32:12.954Z,989.08
2016-11-18T03:32:53.504Z,989.1
2016-11-18T03:33:34.055Z,989.01
2016-11-18T03:34:14.599Z,989.19
2016-11-18T03:34:55.143Z,989.2
2016-11-18T03:35:35.690Z,989.21
2016-11-18T03:36:16.236Z,989.17
2016-11-18T03:36:56.785Z,989.12
2016-11-18T03:37:37.327Z,989
2016-11-18T03:38:17.868Z,988.99
2016-11-18T03:38:58.405Z,989.07
2016-11-18T03:39:38.950Z,989.07
2016-11-18T03:40:19.482Z,989.06
2016-11-18T03:41:00.039Z,989.03
2016-11-18T03:41:40.559Z,988.98
2016-11-18T03:42:21.100Z,988.91
2016-11-18T03:43:01.641Z,988.93
2016-11-18T03:43:42.175Z,988.87
2016-11-18T03:44:22.725Z,988.89
2016-11-18T03:45:03.268Z,988.98
2016-11-18T03:45:43.801Z,988.96
2016-11-18T03:46:24.336Z,988.88
2016-11-18T03:47:04.879Z,988.94
2016-11-18T03:47:45.425Z,988.97
2016-11-18T03:48:25.967Z,988.92
2016-11-18T03:49:06.516Z,988.92
2016-11-18T03:49:47.058Z,988.88
2016-11-18T03:50:27.606Z,989.07
2016-11-18T03:51:08.146Z,988.97
2016-11-18T03:51:48.688Z,989.03
2016-11-18T03:52:29.230Z,989.06
2016-11-18T03:53:09.773Z,989.11
2016-11-18T03:53:50.320Z,989.13
2016-11-18T03:54:30.853Z,989.04
2016-11-18T03:55:11.506Z,989.13
2016-11-18T03:55:51.951Z,989.14
2016-11-18T03:56:32.486Z,989.08
2016-11-18T03:57:13.034Z,989.1
2016-11-18T03:57:53.586Z,989.12
2016-11-18T03:58:34.131Z,989.19
2016-11-18T03:59:14.673Z,989.25
2016-11-18T03:59:55.220Z,989.26
2016-11-18T04:00:35.765Z,989.26
2016-11-18T04:01:16.307Z,989.16
2016-11-18T04:01:56.847Z,989.12
2016-11-18T04:02:37.383Z,989.21
2016-11-18T04:03:17.926Z,989.2
2016-11-18T04:03:58.460Z,989.22
2016-11-18T04:04:39.000Z,989.27
2016-11-18T04:05:19.541Z,989.23
2016-11-18T04:06:00.077Z,989.33
2016-11-18T04:06:40.620Z,989.27
2016-11-18T04:07:21.163Z,989.44
2016-11-18T04:08:01.694Z,989.34
2016-11-18T04:08:42.237Z,989.25
2016-11-18T04:09:22.812Z,989.28
2016-11-18T04:10:03.332Z,989.21
2016-11-18T04:10:43.881Z,989.33
2016-11-18T04:11:24.428Z,989.33
2016-11-18T04:12:04.968Z,989.28
2016-11-18T04:12:45.500Z,989.46
2016-11-18T04:13:26.030Z,989.39
2016-11-18T04:14:06.590Z,989.39
2016-11-18T04:14:47.140Z,989.45
2016-11-18T04:15:27.669Z,989.39
2016-11-18T04:16:08.232Z,989.5
2016-11-18T04:16:48.779Z,989.47
2016-11-18T04:17:29.319Z,989.41
2016-11-18T04:18:09.862Z,989.44
2016-11-18T04:18:50.396Z,989.47
2016-11-18T04:19:30.930Z,989.45
2016-11-18T04:20:11.480Z,989.47
2016-11-18T04:20:52.018Z,989.42
2016-11-18T04:21:32.566Z,989.37
2016-11-18T04:22:13.118Z,989.46
2016-11-18T04:22:53.662Z,989.46
2016-11-18T04:23:34.206Z,989.44
2016-11-18T04:24:14.752Z,989.53
2016-11-18T04:24:55.289Z,989.61
2016-11-18T04:25:35.828Z,989.6
2016-11-18T04:26:16.368Z,989.57
2016-11-18T04:26:56.905Z,989.54
2016-11-18T04:27:37.451Z,989.61
2016-11-18T04:28:17.982Z,989.62
2016-11-18T04:28:58.517Z,989.74
2016-11-18T04:29:39.066Z,989.64
2016-11-18T04:30:19.615Z,989.71
2016-11-18T04:31:00.158Z,989.64
2016-11-18T04:31:40.705Z,989.65
2016-11-18T04:32:21.242Z,989.56
2016-11-18T04:33:01.786Z,989.63
2016-11-18T04:33:42.321Z,989.59
2016-11-18T04:34:22.862Z,989.56
2016-11-18T04:35:03.400Z,989.59
2016-11-18T04:35:43.942Z,989.59
2016-11-18T04:36:24.473Z,989.57
2016-11-18T04:37:05.013Z,989.63
2016-11-18T04:37:45.559Z,989.58
2016-11-18T04:38:26.099Z,989.56
2016-11-18T04:39:06.744Z,989.53
2016-11-18T04:39:47.233Z,989.53
2016-11-18T04:40:27.781Z,989.56
2016-11-18T04:41:08.330Z,989.58
2016-11-18T04:41:48.880Z,989.59
2016-11-18T04:42:29.430Z,989.62
2016-11-18T04:43:09.967Z,989.57
2016-11-18T04:43:50.508Z,989.5
2016-11-18T04:44:31.051Z,989.37
2016-11-18T04:45:11.599Z,989.29
2016-11-18T04:45:52.143Z,989.35
2016-11-18T04:48:21.639Z,989.53
2016-11-18T04:49:02.215Z,989.56
2016-11-18T04:49:42.787Z,989.59
2016-11-18T04:50:23.328Z,989.58
2016-11-18T04:51:03.898Z,989.51
2016-11-18T04:51:44.490Z,989.56
2016-11-18T04:52:25.097Z,989.51
2016-11-18T04:53:05.638Z,989.52
2016-11-18T04:53:46.176Z,989.48
2016-11-18T04:54:26.717Z,989.56
2016-11-18T04:55:07.258Z,989.58
2016-11-18T04:55:47.798Z,989.46
2016-11-18T04:56:28.338Z,989.5
2016-11-18T04:57:08.872Z,989.5
2016-11-18T04:57:49.415Z,989.52
2016-11-18T04:58:29.954Z,989.51
2016-11-18T04:59:10.490Z,989.53
2016-11-18T04:59:51.030Z,989.5
2016-11-18T05:00:31.568Z,989.5
2016-11-18T05:01:12.102Z,989.54
2016-11-18T05:01:52.637Z,989.51
2016-11-18T05:02:33.176Z,989.49
2016-11-18T05:03:13.716Z,989.49
2016-11-18T05:03:54.258Z,989.52
2016-11-18T05:04:34.810Z,989.43
2016-11-18T05:05:15.348Z,989.49
2016-11-18T05:05:55.930Z,989.49
2016-11-18T05:06:36.484Z,989.5
2016-11-18T05:07:17.030Z,989.61
2016-11-18T05:07:57.565Z,989.53
2016-11-18T05:08:38.111Z,989.58
2016-11-18T05:09:18.652Z,989.58
2016-11-18T05:09:59.192Z,989.62
2016-11-18T05:10:39.732Z,989.63
2016-11-18T05:11:20.264Z,989.65
2016-11-18T05:12:00.804Z,989.73
2016-11-18T05:12:41.336Z,989.64
2016-11-18T05:13:21.878Z,989.68
2016-11-18T05:14:02.420Z,989.66
2016-11-18T05:14:42.968Z,989.68
2016-11-18T05:15:23.512Z,989.7
2016-11-18T05:16:04.053Z,989.68
2016-11-18T05:16:44.602Z,990.01
2016-11-18T05:17:25.136Z,990.05
2016-11-18T05:18:05.668Z,989.92
2016-11-18T05:18:46.211Z,989.99
2016-11-18T05:19:26.744Z,990.04
2016-11-18T05:20:07.288Z,990.11
2016-11-18T05:20:47.820Z,990.21
2016-11-18T05:21:28.385Z,990.13
2016-11-18T05:22:08.898Z,989.99
2016-11-18T05:22:49.428Z,990.19
2016-11-18T05:23:29.975Z,990.14
2016-11-18T05:24:10.520Z,990.18
2016-11-18T05:24:51.047Z,990.06
2016-11-18T05:25:31.597Z,989.96
2016-11-18T05:26:12.130Z,990.03
2016-11-18T05:26:52.668Z,990.1
2016-11-18T05:27:33.210Z,990.06
2016-11-18T05:28:13.746Z,990.15
2016-11-18T05:28:54.271Z,990.28
2016-11-18T05:29:34.813Z,990.35
2016-11-18T05:30:15.349Z,990.24
2016-11-18T05:30:55.888Z,990.14
2016-11-18T05:31:36.424Z,990.21
2016-11-18T05:32:16.970Z,990.2
2016-11-18T05:32:57.511Z,990.28
2016-11-18T05:33:38.052Z,990.34
2016-11-18T05:34:18.585Z,990.36
2016-11-18T05:34:59.123Z,990.43
2016-11-18T05:35:39.656Z,990.46
2016-11-18T05:36:20.198Z,990.42
2016-11-18T05:37:00.736Z,990.53
2016-11-18T05:37:41.277Z,990.52
2016-11-18T05:38:21.817Z,990.51
2016-11-18T05:39:02.357Z,990.53
2016-11-18T05:39:42.894Z,990.54
2016-11-18T05:40:23.430Z,990.55
2016-11-18T05:41:03.962Z,990.52
2016-11-18T05:41:44.502Z,990.54
2016-11-18T05:42:25.170Z,990.6
2016-11-18T05:43:05.713Z,990.66
2016-11-18T05:43:46.381Z,990.67
2016-11-18T05:44:26.918Z,990.68
2016-11-18T05:45:07.456Z,990.73
2016-11-18T05:45:48.000Z,990.82
2016-11-18T05:46:28.537Z,990.8
2016-11-18T05:47:09.077Z,990.91
2016-11-18T05:47:49.620Z,990.93
2016-11-18T05:48:30.151Z,990.99
2016-11-18T05:49:10.692Z,991.09
2016-11-18T05:49:51.226Z,991.05
2016-11-18T05:50:31.765Z,991.05
2016-11-18T05:51:12.303Z,991.05
2016-11-18T05:51:52.854Z,991.02
2016-11-18T05:52:33.383Z,991.02
2016-11-18T05:53:13.925Z,990.99
2016-11-18T05:53:54.463Z,991.01
2016-11-18T05:54:34.997Z,991.05
2016-11-18T05:55:15.542Z,991.08
2016-11-18T05:55:56.080Z,991.09
2016-11-18T05:56:36.615Z,991.11
2016-11-18T05:57:17.160Z,991.09
2016-11-18T05:57:57.696Z,991.14
2016-11-18T05:58:38.243Z,991.14
2016-11-18T05:59:18.792Z,991.12
2016-11-18T05:59:59.360Z,991.03
2016-11-18T06:02:13.624Z,990.67
2016-11-18T06:02:54.166Z,990.53
2016-11-18T06:03:34.703Z,990.52
2016-11-18T06:04:15.233Z,990.51
2016-11-18T06:04:55.778Z,990.61
2016-11-18T06:05:36.320Z,990.77
2016-11-18T06:06:16.856Z,990.83
2016-11-18T06:06:57.386Z,990.94
2016-11-18T06:07:37.930Z,991.02
2016-11-18T06:08:18.467Z,991.09
2016-11-18T06:08:59.006Z,991.11
2016-11-18T06:09:39.544Z,991.11
2016-11-18T06:10:20.084Z,991.09
2016-11-18T06:11:00.651Z,991.08
2016-11-18T06:11:41.182Z,991.09
2016-11-18T06:12:21.713Z,991.09
2016-11-18T06:13:02.243Z,991.07
2016-11-18T06:13:42.785Z,991.09
2016-11-18T06:14:23.322Z,991.13
2016-11-18T06:15:03.857Z,991.16
2016-11-18T06:15:44.398Z,991.22
2016-11-18T06:16:24.937Z,991.24
2016-11-18T06:17:05.486Z,991.28
2016-11-18T06:17:46.018Z,991.29
2016-11-18T06:18:26.555Z,991.32
2016-11-18T06:19:07.088Z,991.36
2016-11-18T06:19:47.630Z,991.37
2016-11-18T06:20:28.168Z,991.4
2016-11-18T06:21:08.706Z,991.49
2016-11-18T06:21:49.246Z,991.5
2016-11-18T06:22:29.817Z,991.53
2016-11-18T06:23:10.382Z,991.53
2016-11-18T06:23:50.923Z,991.58
2016-11-18T06:24:31.458Z,991.62
2016-11-18T06:25:12.004Z,991.64
2016-11-18T06:25:52.542Z,991.67
2016-11-18T06:26:33.082Z,991.7
2016-11-18T06:27:13.621Z,991.7
2016-11-18T06:27:54.155Z,991.71
2016-11-18T06:28:34.698Z,991.75
2016-11-18T06:29:15.239Z,991.8
2016-11-18T06:29:55.777Z,991.81
2016-11-18T06:30:36.313Z,991.84
2016-11-18T06:31:16.845Z,991.86
2016-11-18T06:31:57.381Z,991.86
2016-11-18T06:32:37.914Z,991.94
2016-11-18T06:33:18.458Z,992.04
2016-11-18T06:33:58.995Z,992.06
2016-11-18T06:34:39.529Z,992.1
2016-11-18T06:35:20.071Z,992.14
2016-11-18T06:36:00.608Z,992.16
2016-11-18T06:36:41.146Z,992.14
2016-11-18T06:37:21.682Z,992.13
2016-11-18T06:38:02.215Z,992.09
2016-11-18T06:38:42.764Z,992.1
2016-11-18T06:39:23.296Z,992.1
2016-11-18T06:40:03.840Z,992.03
2016-11-18T06:40:44.389Z,991.98
2016-11-18T06:41:24.928Z,991.9
2016-11-18T06:42:05.474Z,991.88
2016-11-18T06:42:46.006Z,991.84
2016-11-18T06:43:26.539Z,991.74
2016-11-18T06:44:07.076Z,991.67
2016-11-18T06:44:47.620Z,991.64
2016-11-18T06:45:28.156Z,991.69
2016-11-18T06:46:08.706Z,991.77
2016-11-18T06:46:49.257Z,991.76
2016-11-18T06:47:29.795Z,991.71
2016-11-18T06:48:10.345Z,991.62
2016-11-18T06:48:50.884Z,991.57
2016-11-18T06:49:31.440Z,991.53
2016-11-18T06:50:12.063Z,991.51
2016-11-18T06:50:52.628Z,991.5
2016-11-18T06:51:33.169Z,991.49
2016-11-18T06:52:13.702Z,991.48
2016-11-18T06:52:54.244Z,991.44
2016-11-18T06:53:34.782Z,991.4
2016-11-18T06:54:15.333Z,991.39
2016-11-18T06:54:55.890Z,991.3
2016-11-18T06:55:36.427Z,991.29
2016-11-18T06:56:16.969Z,991.34
2016-11-18T06:56:57.508Z,991.39
2016-11-18T06:57:38.047Z,991.43
2016-11-18T06:58:18.584Z,991.37
2016-11-18T06:58:59.119Z,991.34
2016-11-18T06:59:39.641Z,991.3
2016-11-18T07:00:20.198Z,991.3
2016-11-18T07:01:00.726Z,991.23
2016-11-18T07:01:41.267Z,991.23
2016-11-18T07:02:21.808Z,991.22
2016-11-18T07:03:02.370Z,991.22
2016-11-18T07:03:42.885Z,991.21
2016-11-18T07:04:23.427Z,991.26
2016-11-18T07:05:03.964Z,991.28
2016-11-18T07:05:44.506Z,991.28
2016-11-18T07:06:25.043Z,991.27
2016-11-18T07:07:05.593Z,991.24
2016-11-18T07:07:46.126Z,991.26
2016-11-18T07:08:26.670Z,991.3
2016-11-18T07:09:07.208Z,991.34
2016-11-18T07:09:47.746Z,991.42
2016-11-18T07:10:28.283Z,991.42
2016-11-18T07:11:08.815Z,991.38
2016-11-18T07:11:49.347Z,991.39
2016-11-18T07:12:29.885Z,991.37
2016-11-18T07:13:10.430Z,991.37
2016-11-18T07:13:50.955Z,991.42
2016-11-18T07:14:31.476Z,991.49
2016-11-18T07:15:12.013Z,991.53
2016-11-18T07:15:52.544Z,991.67
2016-11-18T07:16:33.084Z,991.72
2016-11-18T07:17:13.625Z,991.81
2016-11-18T07:17:54.160Z,991.88
2016-11-18T07:18:34.703Z,991.98
2016-11-18T07:19:15.241Z,991.99
2016-11-18T07:19:55.774Z,991.97
2016-11-18T07:20:36.312Z,992.01
2016-11-18T07:21:16.916Z,992.01
2016-11-18T07:21:57.453Z,991.97
2016-11-18T07:22:37.984Z,991.91
2016-11-18T07:23:18.525Z,991.88
2016-11-18T07:23:59.061Z,991.8
2016-11-18T07:24:39.603Z,991.75
2016-11-18T07:25:20.143Z,991.76
2016-11-18T07:26:00.693Z,991.76
2016-11-18T07:26:41.235Z,991.75
2016-11-18T07:27:21.769Z,991.72
2016-11-18T07:28:02.308Z,991.74
2016-11-18T07:28:42.820Z,991.74
2016-11-18T07:29:23.354Z,991.77
2016-11-18T07:30:03.897Z,991.75
2016-11-18T07:30:44.439Z,991.77
2016-11-18T07:31:25.131Z,991.79
2016-11-18T07:32:05.765Z,991.79
2016-11-18T07:32:46.306Z,991.75
2016-11-18T07:33:26.845Z,991.74
2016-11-18T07:34:07.408Z,991.66
2016-11-18T07:34:47.939Z,991.64
2016-11-18T07:35:28.472Z,991.59
2016-11-18T07:36:09.000Z,991.6
2016-11-18T07:36:49.539Z,991.59
2016-11-18T07:37:30.076Z,991.58
2016-11-18T07:38:10.621Z,991.62
2016-11-18T07:38:51.206Z,991.61
2016-11-18T07:39:31.733Z,991.63
2016-11-18T07:40:12.278Z,991.67
2016-11-18T07:40:52.812Z,991.63
2016-11-18T07:41:33.399Z,991.69
2016-11-18T07:42:13.940Z,991.77
2016-11-18T07:42:54.482Z,991.77
2016-11-18T07:43:35.016Z,991.8
2016-11-18T07:44:15.555Z,991.8
2016-11-18T07:44:56.098Z,991.84
2016-11-18T07:45:36.640Z,991.88
2016-11-18T07:46:17.172Z,991.87
2016-11-18T07:46:57.709Z,991.91
2016-11-18T07:47:38.240Z,991.92
2016-11-18T07:48:18.788Z,991.9
2016-11-18T07:48:59.316Z,991.87
2016-11-18T07:49:39.875Z,991.85
2016-11-18T07:50:20.408Z,991.91
2016-11-18T07:51:00.947Z,991.95
2016-11-18T07:51:41.490Z,991.94
2016-11-18T07:52:22.027Z,991.93
2016-11-18T07:53:02.563Z,991.96
2016-11-18T07:53:43.097Z,991.91
2016-11-18T07:54:23.629Z,991.89
2016-11-18T07:55:04.173Z,991.94
2016-11-18T07:55:44.761Z,991.88
2016-11-18T07:56:25.295Z,991.9
2016-11-18T07:57:05.839Z,991.97
2016-11-18T07:57:46.381Z,992.1
2016-11-18T07:58:26.924Z,992.16
2016-11-18T07:59:07.473Z,992.1
2016-11-18T07:59:48.010Z,992.07
2016-11-18T08:00:28.559Z,992.03
2016-11-18T08:01:09.094Z,991.95
2016-11-18T08:01:49.687Z,991.94
2016-11-18T08:02:30.230Z,992.01
2016-11-18T08:03:10.774Z,992.03
2016-11-18T08:03:51.311Z,992.08
2016-11-18T08:04:31.852Z,992.07
2016-11-18T08:05:12.385Z,992.08
2016-11-18T08:05:52.923Z,992.04
2016-11-18T08:06:33.466Z,992
2016-11-18T08:07:14.006Z,991.97
2016-11-18T08:07:54.545Z,991.93
2016-11-18T08:08:35.079Z,991.98
2016-11-18T08:09:15.623Z,992
2016-11-18T08:09:56.160Z,992.08
2016-11-18T08:10:36.695Z,992.16
2016-11-18T08:11:17.226Z,992.19
2016-11-18T08:11:57.759Z,992.2
2016-11-18T08:12:38.296Z,992.18
2016-11-18T08:13:18.842Z,992.16
2016-11-18T08:13:59.382Z,992.14
2016-11-18T08:14:39.921Z,992.14
2016-11-18T08:15:20.461Z,992.12
2016-11-18T08:16:01.001Z,992.11
2016-11-18T08:16:41.534Z,992.17
2016-11-18T08:17:22.064Z,992.13
2016-11-18T08:18:02.599Z,992.14
2016-11-18T08:18:43.148Z,992.11
2016-11-18T08:19:23.689Z,992.08
2016-11-18T08:20:04.235Z,992.08
2016-11-18T08:20:44.776Z,992.05
2016-11-18T08:21:25.317Z,992.12
2016-11-18T08:22:05.856Z,992.19
2016-11-18T08:22:46.394Z,992.28
2016-11-18T08:23:26.922Z,992.27
2016-11-18T08:24:07.471Z,992.34
2016-11-18T08:24:48.005Z,992.34
2016-11-18T08:25:28.543Z,992.35
2016-11-18T08:26:09.080Z,992.31
2016-11-18T08:26:49.620Z,992.31
2016-11-18T08:27:30.152Z,992.35
2016-11-18T08:28:10.688Z,992.33
2016-11-18T08:28:51.226Z,992.3
2016-11-18T08:29:31.803Z,992.32
2016-11-18T08:30:12.326Z,992.36
2016-11-18T08:30:52.868Z,992.35
2016-11-18T08:31:33.409Z,992.36
2016-11-18T08:32:13.948Z,992.33
2016-11-18T08:32:54.489Z,992.27
2016-11-18T08:33:35.035Z,992.28
2016-11-18T08:34:15.575Z,992.28
2016-11-18T08:34:56.106Z,992.33
2016-11-18T08:35:36.679Z,992.4
2016-11-18T08:36:17.217Z,992.37
2016-11-18T08:36:57.742Z,992.36
2016-11-18T08:37:38.286Z,992.39
2016-11-18T08:38:18.826Z,992.45
2016-11-18T08:38:59.369Z,992.51
2016-11-18T08:39:39.908Z,992.56
2016-11-18T08:40:20.452Z,992.57
2016-11-18T08:41:00.985Z,992.62
2016-11-18T08:41:41.513Z,992.59
2016-11-18T08:42:22.057Z,992.5
2016-11-18T08:43:02.589Z,992.45
2016-11-18T08:43:43.142Z,992.47
2016-11-18T08:44:23.675Z,992.5
2016-11-18T08:45:04.213Z,992.53
2016-11-18T08:45:44.754Z,992.46
2016-11-18T08:46:25.289Z,992.41
2016-11-18T08:47:05.831Z,992.31
2016-11-18T08:47:46.369Z,992.34
2016-11-18T08:48:26.914Z,992.38
2016-11-18T08:49:07.459Z,992.41
2016-11-18T08:49:47.999Z,992.41
2016-11-18T08:50:28.545Z,992.4
2016-11-18T08:51:09.084Z,992.33
2016-11-18T08:51:49.630Z,992.38
2016-11-18T08:52:30.178Z,992.44
2016-11-18T08:53:10.726Z,992.46
2016-11-18T08:53:51.268Z,992.51
2016-11-18T08:54:31.808Z,992.59
2016-11-18T08:55:12.357Z,992.61
2016-11-18T08:55:52.890Z,992.56
2016-11-18T08:56:33.425Z,992.56
2016-11-18T08:57:13.973Z,992.59
2016-11-18T08:57:54.518Z,992.57
2016-11-18T08:58:35.052Z,992.6
2016-11-18T08:59:15.602Z,992.5
2016-11-18T08:59:56.137Z,992.44
2016-11-18T09:00:36.684Z,992.31
2016-11-18T09:01:17.227Z,992.33
2016-11-18T09:01:57.770Z,992.4
2016-11-18T09:02:38.312Z,992.44
2016-11-18T09:03:18.848Z,992.4
2016-11-18T09:03:59.384Z,992.39
2016-11-18T09:04:39.922Z,992.36
2016-11-18T09:05:20.459Z,992.45
2016-11-18T09:06:00.998Z,992.28
2016-11-18T09:06:41.544Z,992.27
2016-11-18T09:07:22.095Z,992.32
2016-11-18T09:08:02.638Z,992.35
2016-11-18T09:08:43.194Z,992.43
2016-11-18T09:09:23.736Z,992.5
2016-11-18T09:10:04.286Z,992.59
2016-11-18T09:10:44.834Z,992.6
2016-11-18T09:11:25.375Z,992.64
2016-11-18T09:12:05.915Z,992.7